sensor_id;sensor_type;location;lat;lon;timestamp;temperature;humidity
20957;DHT22;10637;47.970;7.830;2024-01-07T00:02:19;6.60;99.90
20957;DHT22;10637;47.970;7.830;2024-01-07T00:07:21;6.40;99.90
20957;DHT22;10637;47.970;7.830;2024-01-07T00:12:23;6.10;99.90
20957;DHT22;10637;47.970;7.830;2024-01-07T00:17:26;6.20;99.90
20957;DHT22;10637;47.970;7.830;2024-01-07T00:22:28;5.80;99.90
20957;DHT22;10637;47.970;7.830;2024-01-07T00:27:30;5.60;99.90
20957;DHT22;10637;47.970;7.830;2024-01-07T00:32:31;5.70;99.90
20957;DHT22;10637;47.970;7.830;2024-01-07T00:37:33;5.90;99.90
20957;DHT22;10637;47.970;7.830;2024-01-07T00:42:36;6.00;99.90
20957;DHT22;10637;47.970;7.830;2024-01-07T00:47:38;5.80;99.90
20957;DHT22;10637;47.970;7.830;2024-01-07T00:52:40;5.80;99.90
20957;DHT22;10637;47.970;7.830;2024-01-07T00:57:44;5.90;99.90
20957;DHT22;10637;47.970;7.830;2024-01-07T01:02:46;6.00;99.90
20957;DHT22;10637;47.970;7.830;2024-01-07T01:07:48;6.20;99.90
20957;DHT22;10637;47.970;7.830;2024-01-07T01:12:49;6.10;99.90
20957;DHT22;10637;47.970;7.830;2024-01-07T01:17:54;6.00;99.90
20957;DHT22;10637;47.970;7.830;2024-01-07T01:22:55;6.00;99.90
20957;DHT22;10637;47.970;7.830;2024-01-07T01:27:57;6.20;99.90
20957;DHT22;10637;47.970;7.830;2024-01-07T01:33:00;6.40;99.90
20957;DHT22;10637;47.970;7.830;2024-01-07T01:38:03;6.50;99.90
20957;DHT22;10637;47.970;7.830;2024-01-07T01:43:05;6.50;99.90
20957;DHT22;10637;47.970;7.830;2024-01-07T01:48:07;6.50;99.90
20957;DHT22;10637;47.970;7.830;2024-01-07T01:53:09;6.50;99.90
20957;DHT22;10637;47.970;7.830;2024-01-07T01:58:13;6.60;99.90
20957;DHT22;10637;47.970;7.830;2024-01-07T02:03:15;6.60;99.90
20957;DHT22;10637;47.970;7.830;2024-01-07T02:08:18;6.60;99.90
20957;DHT22;10637;47.970;7.830;2024-01-07T02:13:20;6.60;99.90
20957;DHT22;10637;47.970;7.830;2024-01-07T02:18:22;6.60;99.90
20957;DHT22;10637;47.970;7.830;2024-01-07T02:23:24;6.60;99.90
20957;DHT22;10637;47.970;7.830;2024-01-07T02:28:25;6.40;99.90
20957;DHT22;10637;47.970;7.830;2024-01-07T02:33:28;6.30;99.90
20957;DHT22;10637;47.970;7.830;2024-01-07T02:38:32;6.30;99.90
20957;DHT22;10637;47.970;7.830;2024-01-07T02:43:34;6.20;99.90
20957;DHT22;10637;47.970;7.830;2024-01-07T02:48:36;6.20;99.90
20957;DHT22;10637;47.970;7.830;2024-01-07T02:53:38;6.10;99.90
20957;DHT22;10637;47.970;7.830;2024-01-07T02:58:39;6.10;99.90
20957;DHT22;10637;47.970;7.830;2024-01-07T03:03:41;6.10;99.90
20957;DHT22;10637;47.970;7.830;2024-01-07T03:08:43;6.00;99.90
20957;DHT22;10637;47.970;7.830;2024-01-07T03:13:44;5.80;99.90
20957;DHT22;10637;47.970;7.830;2024-01-07T03:18:46;5.90;99.90
20957;DHT22;10637;47.970;7.830;2024-01-07T03:23:50;5.80;99.90
20957;DHT22;10637;47.970;7.830;2024-01-07T03:28:51;5.80;99.90
20957;DHT22;10637;47.970;7.830;2024-01-07T03:33:54;5.70;99.90
20957;DHT22;10637;47.970;7.830;2024-01-07T03:38:56;5.70;99.90
20957;DHT22;10637;47.970;7.830;2024-01-07T03:43:58;5.70;99.90
20957;DHT22;10637;47.970;7.830;2024-01-07T03:49:00;5.80;99.90
20957;DHT22;10637;47.970;7.830;2024-01-07T03:54:02;5.70;99.90
20957;DHT22;10637;47.970;7.830;2024-01-07T03:59:04;5.70;99.90
20957;DHT22;10637;47.970;7.830;2024-01-07T04:04:05;5.70;99.90
20957;DHT22;10637;47.970;7.830;2024-01-07T04:09:07;5.70;99.90
20957;DHT22;10637;47.970;7.830;2024-01-07T04:14:10;5.70;99.90
20957;DHT22;10637;47.970;7.830;2024-01-07T04:19:11;5.60;99.90
20957;DHT22;10637;47.970;7.830;2024-01-07T04:24:14;5.60;99.90
20957;DHT22;10637;47.970;7.830;2024-01-07T04:29:16;5.70;99.90
20957;DHT22;10637;47.970;7.830;2024-01-07T04:34:17;5.70;99.90
20957;DHT22;10637;47.970;7.830;2024-01-07T04:39:19;5.60;99.90
20957;DHT22;10637;47.970;7.830;2024-01-07T04:44:22;5.60;99.90
20957;DHT22;10637;47.970;7.830;2024-01-07T04:49:24;5.70;99.90
20957;DHT22;10637;47.970;7.830;2024-01-07T04:54:25;5.60;99.90
20957;DHT22;10637;47.970;7.830;2024-01-07T04:59:27;5.60;99.90
20957;DHT22;10637;47.970;7.830;2024-01-07T05:04:29;5.60;99.90
20957;DHT22;10637;47.970;7.830;2024-01-07T05:09:32;5.70;99.90
20957;DHT22;10637;47.970;7.830;2024-01-07T05:14:34;5.70;99.90
20957;DHT22;10637;47.970;7.830;2024-01-07T05:19:36;5.70;99.90
20957;DHT22;10637;47.970;7.830;2024-01-07T05:24:38;5.60;99.90
20957;DHT22;10637;47.970;7.830;2024-01-07T05:29:44;5.70;99.90
20957;DHT22;10637;47.970;7.830;2024-01-07T05:34:46;5.60;99.90
20957;DHT22;10637;47.970;7.830;2024-01-07T05:39:48;5.70;99.90
20957;DHT22;10637;47.970;7.830;2024-01-07T05:44:50;5.60;99.90
20957;DHT22;10637;47.970;7.830;2024-01-07T05:49:52;5.60;99.90
20957;DHT22;10637;47.970;7.830;2024-01-07T05:54:54;5.50;99.90
20957;DHT22;10637;47.970;7.830;2024-01-07T05:59:56;5.50;99.90
20957;DHT22;10637;47.970;7.830;2024-01-07T06:04:57;5.40;99.90
20957;DHT22;10637;47.970;7.830;2024-01-07T06:10:00;5.50;99.90
20957;DHT22;10637;47.970;7.830;2024-01-07T06:15:02;5.50;99.90
20957;DHT22;10637;47.970;7.830;2024-01-07T06:20:04;5.50;99.90
20957;DHT22;10637;47.970;7.830;2024-01-07T06:25:07;5.50;99.90
20957;DHT22;10637;47.970;7.830;2024-01-07T06:30:09;5.50;99.90
20957;DHT22;10637;47.970;7.830;2024-01-07T06:35:12;5.60;99.90
20957;DHT22;10637;47.970;7.830;2024-01-07T06:40:13;5.60;99.90
20957;DHT22;10637;47.970;7.830;2024-01-07T06:45:16;5.70;99.90
20957;DHT22;10637;47.970;7.830;2024-01-07T06:50:18;5.60;99.90
20957;DHT22;10637;47.970;7.830;2024-01-07T06:55:22;5.60;99.90
20957;DHT22;10637;47.970;7.830;2024-01-07T07:00:23;5.60;99.90
20957;DHT22;10637;47.970;7.830;2024-01-07T07:05:25;5.40;99.90
20957;DHT22;10637;47.970;7.830;2024-01-07T07:10:27;5.40;99.90
20957;DHT22;10637;47.970;7.830;2024-01-07T07:15:29;5.50;99.90
20957;DHT22;10637;47.970;7.830;2024-01-07T07:20:31;5.40;99.90
20957;DHT22;10637;47.970;7.830;2024-01-07T07:25:33;5.40;99.90
20957;DHT22;10637;47.970;7.830;2024-01-07T07:30:34;5.50;99.90
20957;DHT22;10637;47.970;7.830;2024-01-07T07:35:36;5.40;99.90
20957;DHT22;10637;47.970;7.830;2024-01-07T07:40:40;5.30;99.90
20957;DHT22;10637;47.970;7.830;2024-01-07T07:45:42;5.30;99.90
20957;DHT22;10637;47.970;7.830;2024-01-07T07:50:45;5.30;99.90
20957;DHT22;10637;47.970;7.830;2024-01-07T07:55:46;5.30;99.90
20957;DHT22;10637;47.970;7.830;2024-01-07T08:00:48;5.30;99.90
20957;DHT22;10637;47.970;7.830;2024-01-07T08:05:51;5.20;99.90
20957;DHT22;10637;47.970;7.830;2024-01-07T08:10:53;5.20;99.90
20957;DHT22;10637;47.970;7.830;2024-01-07T08:15:55;5.30;99.90
20957;DHT22;10637;47.970;7.830;2024-01-07T08:20:57;5.40;99.90
20957;DHT22;10637;47.970;7.830;2024-01-07T08:25:59;5.30;99.90
20957;DHT22;10637;47.970;7.830;2024-01-07T08:31:01;5.30;99.90
20957;DHT22;10637;47.970;7.830;2024-01-07T08:36:03;5.40;99.90
20957;DHT22;10637;47.970;7.830;2024-01-07T08:41:06;5.50;99.90
20957;DHT22;10637;47.970;7.830;2024-01-07T08:46:09;5.40;99.90
20957;DHT22;10637;47.970;7.830;2024-01-07T08:51:11;5.40;99.90
20957;DHT22;10637;47.970;7.830;2024-01-07T08:56:13;5.50;99.90
20957;DHT22;10637;47.970;7.830;2024-01-07T09:01:14;5.60;99.90
20957;DHT22;10637;47.970;7.830;2024-01-07T09:06:16;5.60;99.90
20957;DHT22;10637;47.970;7.830;2024-01-07T09:11:21;5.60;99.90
20957;DHT22;10637;47.970;7.830;2024-01-07T09:16:23;5.60;99.90
20957;DHT22;10637;47.970;7.830;2024-01-07T09:21:25;5.60;99.90
20957;DHT22;10637;47.970;7.830;2024-01-07T09:26:27;5.60;99.90
20957;DHT22;10637;47.970;7.830;2024-01-07T09:31:30;5.60;99.90
20957;DHT22;10637;47.970;7.830;2024-01-07T09:36:33;5.60;99.90
20957;DHT22;10637;47.970;7.830;2024-01-07T09:41:35;5.60;99.90
20957;DHT22;10637;47.970;7.830;2024-01-07T09:46:37;5.60;99.90
20957;DHT22;10637;47.970;7.830;2024-01-07T09:51:44;5.60;99.90
20957;DHT22;10637;47.970;7.830;2024-01-07T09:57:03;5.50;99.90
20957;DHT22;10637;47.970;7.830;2024-01-07T10:02:05;5.60;99.90
20957;DHT22;10637;47.970;7.830;2024-01-07T10:07:07;5.80;99.90
20957;DHT22;10637;47.970;7.830;2024-01-07T10:12:09;5.70;99.90
20957;DHT22;10637;47.970;7.830;2024-01-07T10:17:15;5.70;99.90
20957;DHT22;10637;47.970;7.830;2024-01-07T10:22:18;5.60;99.90
20957;DHT22;10637;47.970;7.830;2024-01-07T10:27:22;5.70;99.90
20957;DHT22;10637;47.970;7.830;2024-01-07T10:32:24;5.60;99.90
20957;DHT22;10637;47.970;7.830;2024-01-07T10:37:26;5.60;99.90
20957;DHT22;10637;47.970;7.830;2024-01-07T10:42:30;5.60;99.90
20957;DHT22;10637;47.970;7.830;2024-01-07T10:47:34;5.50;99.90
20957;DHT22;10637;47.970;7.830;2024-01-07T10:52:40;5.60;99.90
20957;DHT22;10637;47.970;7.830;2024-01-07T10:57:46;5.70;99.90
20957;DHT22;10637;47.970;7.830;2024-01-07T11:08:11;5.50;99.90
20957;DHT22;10637;47.970;7.830;2024-01-07T11:18:50;5.70;99.90
20957;DHT22;10637;47.970;7.830;2024-01-07T11:23:55;5.70;99.90
20957;DHT22;10637;47.970;7.830;2024-01-07T11:28:58;5.80;99.90
20957;DHT22;10637;47.970;7.830;2024-01-07T11:34:01;5.80;99.90
20957;DHT22;10637;47.970;7.830;2024-01-07T11:39:04;5.80;99.90
20957;DHT22;10637;47.970;7.830;2024-01-07T11:44:08;5.70;99.90
20957;DHT22;10637;47.970;7.830;2024-01-07T11:49:12;5.70;99.90
20957;DHT22;10637;47.970;7.830;2024-01-07T11:54:17;5.90;99.90
20957;DHT22;10637;47.970;7.830;2024-01-07T11:59:19;5.90;99.90
20957;DHT22;10637;47.970;7.830;2024-01-07T12:04:21;5.90;99.90
20957;DHT22;10637;47.970;7.830;2024-01-07T12:09:23;5.70;99.90
20957;DHT22;10637;47.970;7.830;2024-01-07T12:14:26;5.90;99.90
20957;DHT22;10637;47.970;7.830;2024-01-07T12:19:28;5.90;99.90
20957;DHT22;10637;47.970;7.830;2024-01-07T12:24:30;5.90;99.90
20957;DHT22;10637;47.970;7.830;2024-01-07T12:29:32;6.00;99.90
20957;DHT22;10637;47.970;7.830;2024-01-07T12:34:34;6.10;99.90
20957;DHT22;10637;47.970;7.830;2024-01-07T12:39:37;6.10;99.90
20957;DHT22;10637;47.970;7.830;2024-01-07T12:44:39;6.00;99.90
20957;DHT22;10637;47.970;7.830;2024-01-07T12:49:41;6.00;99.90
20957;DHT22;10637;47.970;7.830;2024-01-07T12:54:43;6.10;99.90
20957;DHT22;10637;47.970;7.830;2024-01-07T12:59:44;5.90;99.90
20957;DHT22;10637;47.970;7.830;2024-01-07T13:04:46;5.90;99.90
20957;DHT22;10637;47.970;7.830;2024-01-07T13:09:48;5.70;99.90
20957;DHT22;10637;47.970;7.830;2024-01-07T13:14:50;5.80;99.90
20957;DHT22;10637;47.970;7.830;2024-01-07T13:19:52;6.00;99.90
20957;DHT22;10637;47.970;7.830;2024-01-07T13:24:54;5.90;99.90
20957;DHT22;10637;47.970;7.830;2024-01-07T13:29:56;6.00;99.90
20957;DHT22;10637;47.970;7.830;2024-01-07T13:34:58;6.00;99.90
20957;DHT22;10637;47.970;7.830;2024-01-07T13:40:00;6.10;99.90
20957;DHT22;10637;47.970;7.830;2024-01-07T13:45:04;6.00;99.90
20957;DHT22;10637;47.970;7.830;2024-01-07T13:50:06;6.00;99.90
20957;DHT22;10637;47.970;7.830;2024-01-07T13:55:09;6.00;99.90
20957;DHT22;10637;47.970;7.830;2024-01-07T14:00:15;6.00;99.90
20957;DHT22;10637;47.970;7.830;2024-01-07T14:05:20;6.00;99.90
20957;DHT22;10637;47.970;7.830;2024-01-07T14:10:22;5.90;99.90
20957;DHT22;10637;47.970;7.830;2024-01-07T14:15:24;6.00;99.90
20957;DHT22;10637;47.970;7.830;2024-01-07T14:20:26;5.90;99.90
20957;DHT22;10637;47.970;7.830;2024-01-07T14:25:30;5.80;99.90
20957;DHT22;10637;47.970;7.830;2024-01-07T14:30:32;5.80;99.90
20957;DHT22;10637;47.970;7.830;2024-01-07T14:35:34;5.70;99.90
20957;DHT22;10637;47.970;7.830;2024-01-07T14:40:36;5.40;99.90
20957;DHT22;10637;47.970;7.830;2024-01-07T14:45:37;5.30;99.90
20957;DHT22;10637;47.970;7.830;2024-01-07T14:50:39;5.30;99.90
20957;DHT22;10637;47.970;7.830;2024-01-07T14:55:42;5.20;99.90
20957;DHT22;10637;47.970;7.830;2024-01-07T15:00:44;5.20;99.90
20957;DHT22;10637;47.970;7.830;2024-01-07T15:05:46;5.20;99.90
20957;DHT22;10637;47.970;7.830;2024-01-07T15:10:48;5.00;99.90
20957;DHT22;10637;47.970;7.830;2024-01-07T15:15:50;4.90;99.90
20957;DHT22;10637;47.970;7.830;2024-01-07T15:20:52;4.80;99.90
20957;DHT22;10637;47.970;7.830;2024-01-07T15:25:54;4.80;99.90
20957;DHT22;10637;47.970;7.830;2024-01-07T15:30:56;4.80;99.90
20957;DHT22;10637;47.970;7.830;2024-01-07T15:35:58;4.80;99.90
20957;DHT22;10637;47.970;7.830;2024-01-07T15:41:00;4.80;99.90
20957;DHT22;10637;47.970;7.830;2024-01-07T15:46:02;4.70;99.90
20957;DHT22;10637;47.970;7.830;2024-01-07T15:51:05;4.80;99.90
20957;DHT22;10637;47.970;7.830;2024-01-07T15:56:08;4.90;99.90
20957;DHT22;10637;47.970;7.830;2024-01-07T16:01:10;4.90;99.90
20957;DHT22;10637;47.970;7.830;2024-01-07T16:06:12;5.00;99.90
20957;DHT22;10637;47.970;7.830;2024-01-07T16:11:14;5.00;99.90
20957;DHT22;10637;47.970;7.830;2024-01-07T16:16:19;5.10;99.90
20957;DHT22;10637;47.970;7.830;2024-01-07T16:21:21;5.00;99.90
20957;DHT22;10637;47.970;7.830;2024-01-07T16:26:23;5.00;99.90
20957;DHT22;10637;47.970;7.830;2024-01-07T16:31:26;5.00;99.90
20957;DHT22;10637;47.970;7.830;2024-01-07T16:36:28;5.00;99.90
20957;DHT22;10637;47.970;7.830;2024-01-07T16:41:30;5.00;99.90
20957;DHT22;10637;47.970;7.830;2024-01-07T16:46:32;5.00;99.90
20957;DHT22;10637;47.970;7.830;2024-01-07T16:51:33;4.90;99.90
20957;DHT22;10637;47.970;7.830;2024-01-07T16:56:35;4.90;99.90
20957;DHT22;10637;47.970;7.830;2024-01-07T17:01:38;4.80;99.90
20957;DHT22;10637;47.970;7.830;2024-01-07T17:06:39;4.50;99.90
20957;DHT22;10637;47.970;7.830;2024-01-07T17:11:41;4.40;99.90
20957;DHT22;10637;47.970;7.830;2024-01-07T17:16:43;4.30;99.90
20957;DHT22;10637;47.970;7.830;2024-01-07T17:21:45;4.20;99.90
20957;DHT22;10637;47.970;7.830;2024-01-07T17:26:48;4.10;99.90
20957;DHT22;10637;47.970;7.830;2024-01-07T17:31:50;4.00;99.90
20957;DHT22;10637;47.970;7.830;2024-01-07T17:36:52;4.00;99.90
20957;DHT22;10637;47.970;7.830;2024-01-07T17:41:54;3.90;99.90
20957;DHT22;10637;47.970;7.830;2024-01-07T17:46:55;3.80;99.90
20957;DHT22;10637;47.970;7.830;2024-01-07T17:51:57;3.80;99.90
20957;DHT22;10637;47.970;7.830;2024-01-07T17:56:59;3.70;99.90
20957;DHT22;10637;47.970;7.830;2024-01-07T18:02:02;3.70;99.90
20957;DHT22;10637;47.970;7.830;2024-01-07T18:07:04;3.60;99.90
20957;DHT22;10637;47.970;7.830;2024-01-07T18:12:06;3.60;99.90
20957;DHT22;10637;47.970;7.830;2024-01-07T18:17:08;3.40;99.90
20957;DHT22;10637;47.970;7.830;2024-01-07T18:22:09;3.40;99.90
20957;DHT22;10637;47.970;7.830;2024-01-07T18:27:11;3.50;99.90
20957;DHT22;10637;47.970;7.830;2024-01-07T18:32:13;3.50;99.90
20957;DHT22;10637;47.970;7.830;2024-01-07T18:37:15;3.50;99.90
20957;DHT22;10637;47.970;7.830;2024-01-07T18:42:18;3.60;99.90
20957;DHT22;10637;47.970;7.830;2024-01-07T18:47:20;3.70;99.90
20957;DHT22;10637;47.970;7.830;2024-01-07T18:52:22;3.70;99.90
20957;DHT22;10637;47.970;7.830;2024-01-07T18:57:24;3.80;99.90
20957;DHT22;10637;47.970;7.830;2024-01-07T19:02:25;3.80;99.90
20957;DHT22;10637;47.970;7.830;2024-01-07T19:07:27;3.80;99.90
20957;DHT22;10637;47.970;7.830;2024-01-07T19:12:29;3.90;99.90
20957;DHT22;10637;47.970;7.830;2024-01-07T19:17:31;3.90;99.90
20957;DHT22;10637;47.970;7.830;2024-01-07T19:22:33;3.90;99.90
20957;DHT22;10637;47.970;7.830;2024-01-07T19:27:36;3.90;99.90
20957;DHT22;10637;47.970;7.830;2024-01-07T19:32:39;3.80;99.90
20957;DHT22;10637;47.970;7.830;2024-01-07T19:37:42;3.70;99.90
20957;DHT22;10637;47.970;7.830;2024-01-07T19:42:44;3.70;99.90
20957;DHT22;10637;47.970;7.830;2024-01-07T19:47:47;3.60;99.90
20957;DHT22;10637;47.970;7.830;2024-01-07T19:52:49;3.60;99.90
20957;DHT22;10637;47.970;7.830;2024-01-07T19:57:51;3.60;99.90
20957;DHT22;10637;47.970;7.830;2024-01-07T20:02:53;3.60;99.90
20957;DHT22;10637;47.970;7.830;2024-01-07T20:07:57;3.50;99.90
20957;DHT22;10637;47.970;7.830;2024-01-07T20:12:59;3.40;99.90
20957;DHT22;10637;47.970;7.830;2024-01-07T20:18:03;3.40;99.90
20957;DHT22;10637;47.970;7.830;2024-01-07T20:23:05;3.30;99.90
20957;DHT22;10637;47.970;7.830;2024-01-07T20:28:07;3.30;99.90
20957;DHT22;10637;47.970;7.830;2024-01-07T20:33:08;3.20;99.90
20957;DHT22;10637;47.970;7.830;2024-01-07T20:38:11;3.20;99.90
20957;DHT22;10637;47.970;7.830;2024-01-07T20:43:13;3.30;99.90
20957;DHT22;10637;47.970;7.830;2024-01-07T20:48:15;3.30;99.90
20957;DHT22;10637;47.970;7.830;2024-01-07T20:53:17;3.30;99.90
20957;DHT22;10637;47.970;7.830;2024-01-07T20:58:21;3.30;99.90
20957;DHT22;10637;47.970;7.830;2024-01-07T21:03:23;3.00;99.90
20957;DHT22;10637;47.970;7.830;2024-01-07T21:08:27;3.10;99.90
20957;DHT22;10637;47.970;7.830;2024-01-07T21:13:30;3.10;99.90
20957;DHT22;10637;47.970;7.830;2024-01-07T21:18:32;3.00;99.90
20957;DHT22;10637;47.970;7.830;2024-01-07T21:23:34;3.00;99.90
20957;DHT22;10637;47.970;7.830;2024-01-07T21:28:36;3.00;99.90
20957;DHT22;10637;47.970;7.830;2024-01-07T21:33:37;3.00;99.90
20957;DHT22;10637;47.970;7.830;2024-01-07T21:38:39;3.00;99.90
20957;DHT22;10637;47.970;7.830;2024-01-07T21:43:41;2.90;99.90
20957;DHT22;10637;47.970;7.830;2024-01-07T21:48:43;2.80;99.90
20957;DHT22;10637;47.970;7.830;2024-01-07T21:53:46;2.90;99.90
20957;DHT22;10637;47.970;7.830;2024-01-07T21:58:47;2.90;99.90
20957;DHT22;10637;47.970;7.830;2024-01-07T22:03:49;2.90;99.90
20957;DHT22;10637;47.970;7.830;2024-01-07T22:08:51;2.90;99.90
20957;DHT22;10637;47.970;7.830;2024-01-07T22:13:53;2.80;99.90
20957;DHT22;10637;47.970;7.830;2024-01-07T22:18:54;2.80;99.90
20957;DHT22;10637;47.970;7.830;2024-01-07T22:23:56;2.70;99.90
20957;DHT22;10637;47.970;7.830;2024-01-07T22:28:58;2.60;99.90
20957;DHT22;10637;47.970;7.830;2024-01-07T22:34:00;2.50;99.90
20957;DHT22;10637;47.970;7.830;2024-01-07T22:39:04;2.60;99.90
20957;DHT22;10637;47.970;7.830;2024-01-07T22:44:06;2.50;99.90
20957;DHT22;10637;47.970;7.830;2024-01-07T22:49:09;2.30;99.90
20957;DHT22;10637;47.970;7.830;2024-01-07T22:54:11;2.30;99.90
20957;DHT22;10637;47.970;7.830;2024-01-07T22:59:17;2.20;99.90
20957;DHT22;10637;47.970;7.830;2024-01-07T23:04:20;2.20;99.90
20957;DHT22;10637;47.970;7.830;2024-01-07T23:09:22;2.20;99.90
20957;DHT22;10637;47.970;7.830;2024-01-07T23:14:24;2.20;99.90
20957;DHT22;10637;47.970;7.830;2024-01-07T23:19:26;2.20;99.90
20957;DHT22;10637;47.970;7.830;2024-01-07T23:24:27;2.00;99.90
20957;DHT22;10637;47.970;7.830;2024-01-07T23:29:31;2.10;99.90
20957;DHT22;10637;47.970;7.830;2024-01-07T23:34:33;2.10;99.90
20957;DHT22;10637;47.970;7.830;2024-01-07T23:39:35;2.10;99.90
20957;DHT22;10637;47.970;7.830;2024-01-07T23:44:37;2.10;99.90
20957;DHT22;10637;47.970;7.830;2024-01-07T23:49:39;2.00;99.90
20957;DHT22;10637;47.970;7.830;2024-01-07T23:54:40;2.00;99.90
20957;DHT22;10637;47.970;7.830;2024-01-07T23:59:42;2.00;99.90
